createdAt,value
2023-12-23T00:01:55.415Z,96468.78
2023-12-23T00:04:21.726Z,96475.44
2023-12-23T00:06:50.992Z,96476.47
2023-12-23T00:09:17.229Z,96466.38
2023-12-23T00:11:43.499Z,96473.25
2023-12-23T00:14:09.903Z,96465.81
2023-12-23T00:16:36.233Z,96489.72
2023-12-23T00:19:02.756Z,96491.81
2023-12-23T00:21:32.223Z,96491.81
2023-12-23T00:23:58.571Z,96488.88
2023-12-23T00:26:24.835Z,96499.22
2023-12-23T00:28:51.207Z,96506.09
2023-12-23T00:31:17.509Z,96506.63
2023-12-23T00:33:43.820Z,96514.03
2023-12-23T00:36:10.067Z,96514.56
2023-12-23T00:38:36.288Z,96516.13
2023-12-23T00:41:02.579Z,96516.66
2023-12-23T00:43:28.856Z,96521.69
2023-12-23T00:45:55.210Z,96525.88
2023-12-23T00:48:21.617Z,96541.50
2023-12-23T00:50:47.933Z,96563.25
2023-12-23T00:53:14.351Z,96576.78
2023-12-23T00:55:40.785Z,96571.97
2023-12-23T00:58:07.010Z,96549.41
2023-12-23T01:00:33.362Z,96575.66
2023-12-23T01:02:59.636Z,96578.56
2023-12-23T01:05:25.934Z,96574.81
2023-12-23T01:07:52.510Z,96575.31
2023-12-23T01:10:18.927Z,96573.72
2023-12-23T01:12:45.223Z,96569.72
2023-12-23T01:15:11.460Z,96570.22
2023-12-23T01:17:37.769Z,96588.25
2023-12-23T01:20:04.117Z,96594.03
2023-12-23T01:22:30.382Z,96590.06
2023-12-23T01:24:56.656Z,96609.66
2023-12-23T01:27:22.919Z,96606.72
2023-12-23T01:29:49.180Z,96606.16
2023-12-23T01:32:15.542Z,96612.78
2023-12-23T01:34:41.856Z,96604.28
2023-12-23T01:37:08.152Z,96610.88
2023-12-23T01:39:34.389Z,96615.66
2023-12-23T01:42:00.631Z,96610.59
2023-12-23T01:44:26.948Z,96627.00
2023-12-23T01:46:53.323Z,96625.41
2023-12-23T01:49:19.750Z,96631.75
2023-12-23T01:51:45.998Z,96634.09
2023-12-23T01:54:12.253Z,96637.81
2023-12-23T01:56:38.475Z,96637.00
2023-12-23T01:59:05.002Z,96642.81
2023-12-23T02:01:31.331Z,96639.59
2023-12-23T02:03:57.718Z,96649.41
2023-12-23T02:06:24.008Z,96649.09
2023-12-23T02:08:50.331Z,96657.31
2023-12-23T02:11:16.585Z,96664.94
2023-12-23T02:13:43.310Z,96666.81
2023-12-23T02:16:09.598Z,96669.69
2023-12-23T02:18:35.891Z,96669.16
2023-12-23T02:21:02.355Z,96640.94
2023-12-23T02:23:28.608Z,96654.81
2023-12-23T02:25:54.952Z,96665.41
2023-12-23T02:28:21.219Z,96662.44
2023-12-23T02:30:47.465Z,96660.06
2023-12-23T02:33:13.896Z,96656.84
2023-12-23T02:35:40.188Z,96661.59
2023-12-23T02:38:06.477Z,96655.72
2023-12-23T02:40:32.781Z,96660.25
2023-12-23T02:42:59.027Z,96654.16
2023-12-23T02:45:25.298Z,96669.47
2023-12-23T02:47:51.625Z,96663.63
2023-12-23T02:50:18.021Z,96669.97
2023-12-23T02:52:44.392Z,96678.97
2023-12-23T02:55:10.664Z,96683.69
2023-12-23T02:57:36.913Z,96671.75
2023-12-23T03:00:03.238Z,96672.75
2023-12-23T03:02:29.524Z,96672.75
2023-12-23T03:04:55.829Z,96665.31
2023-12-23T03:07:22.141Z,96674.31
2023-12-23T03:09:48.391Z,96673.78
2023-12-23T03:12:14.635Z,96671.38
2023-12-23T03:14:40.890Z,96676.09
2023-12-23T03:17:07.191Z,96670.25
2023-12-23T03:19:33.490Z,96660.72
2023-12-23T03:21:59.746Z,96664.41
2023-12-23T03:24:26.034Z,96656.94
2023-12-23T03:26:52.330Z,96649.25
2023-12-23T03:29:18.596Z,96655.59
2023-12-23T03:31:44.897Z,96638.09
2023-12-23T03:34:11.232Z,96642.59
2023-12-23T03:36:37.479Z,96638.34
2023-12-23T03:39:03.703Z,96640.19
2023-12-23T03:41:29.984Z,96629.59
2023-12-23T03:43:56.361Z,96642.84
2023-12-23T03:46:22.626Z,96648.38
2023-12-23T03:48:48.921Z,96639.63
2023-12-23T03:51:15.296Z,96636.22
2023-12-23T03:53:41.565Z,96637.22
2023-12-23T03:56:07.867Z,96632.19
2023-12-23T03:58:34.185Z,96630.81
2023-12-23T04:01:00.535Z,96636.13
2023-12-23T04:03:26.756Z,96627.38
2023-12-23T04:05:53.144Z,96635.59
2023-12-23T04:08:19.444Z,96627.88
2023-12-23T04:10:45.782Z,96636.63
2023-12-23T04:13:12.159Z,96635.03
2023-12-23T04:15:38.385Z,96630.75
2023-12-23T04:18:04.699Z,96625.47
2023-12-23T04:20:30.980Z,96616.75
2023-12-23T04:22:57.253Z,96606.94
2023-12-23T04:25:23.743Z,96602.69
2023-12-23T04:27:49.974Z,96595.81
2023-12-23T04:30:16.252Z,96595.00
2023-12-23T04:32:42.776Z,96589.97
2023-12-23T04:35:09.134Z,96575.91
2023-12-23T04:37:35.400Z,96579.63
2023-12-23T04:40:01.634Z,96574.31
2023-12-23T04:42:27.904Z,96576.41
2023-12-23T04:44:54.156Z,96576.41
2023-12-23T04:47:20.471Z,96578.25
2023-12-23T04:49:46.821Z,96588.84
2023-12-23T04:52:13.138Z,96597.84
2023-12-23T04:54:39.465Z,96593.56
2023-12-23T04:57:05.817Z,96600.69
2023-12-23T04:59:32.225Z,96591.41
2023-12-23T05:01:58.514Z,96585.06
2023-12-23T05:04:24.879Z,96577.38
2023-12-23T05:06:51.143Z,96587.16
2023-12-23T05:09:17.371Z,96581.09
2023-12-23T05:11:43.598Z,96577.63
2023-12-23T05:14:09.911Z,96580.28
2023-12-23T05:16:39.375Z,96577.88
2023-12-23T05:19:05.790Z,96571.78
2023-12-23T05:21:32.075Z,96568.56
2023-12-23T05:23:58.327Z,96566.72
2023-12-23T05:26:24.667Z,96561.69
2023-12-23T05:28:50.956Z,96561.69
2023-12-23T05:31:17.276Z,96559.28
2023-12-23T05:33:43.603Z,96559.03
2023-12-23T05:36:09.943Z,96552.94
2023-12-23T05:38:36.196Z,96554.00
2023-12-23T05:41:02.462Z,96543.66
2023-12-23T05:43:28.748Z,96546.31
2023-12-23T05:45:55.009Z,96537.81
2023-12-23T05:48:21.380Z,96543.09
2023-12-23T05:50:47.766Z,96538.06
2023-12-23T05:53:14.030Z,96527.69
2023-12-23T05:55:40.434Z,96521.63
2023-12-23T05:58:06.729Z,96520.25
2023-12-23T06:00:33.078Z,96517.84
2023-12-23T06:02:59.309Z,96514.41
2023-12-23T06:05:25.720Z,96508.59
2023-12-23T06:07:52.171Z,96499.28
2023-12-23T06:10:18.496Z,96499.53
2023-12-23T06:12:44.744Z,96489.44
2023-12-23T06:15:11.024Z,96487.84
2023-12-23T06:17:37.347Z,96485.69
2023-12-23T06:20:03.582Z,96474.53
2023-12-23T06:22:29.844Z,96467.13
2023-12-23T06:24:56.086Z,96462.06
2023-12-23T06:27:22.351Z,96451.72
2023-12-23T06:29:48.663Z,96445.88
2023-12-23T06:32:15.026Z,96441.06
2023-12-23T06:34:41.384Z,96437.91
2023-12-23T06:37:07.668Z,96430.19
2023-12-23T06:39:33.967Z,96423.31
2023-12-23T06:42:00.207Z,96416.44
2023-12-23T06:44:26.506Z,96414.00
2023-12-23T06:46:52.812Z,96411.88
2023-12-23T06:49:19.202Z,96406.81
2023-12-23T06:51:45.567Z,96403.63
2023-12-23T06:54:11.873Z,96399.66
2023-12-23T06:56:38.099Z,96395.38
2023-12-23T06:59:04.410Z,96386.91
2023-12-23T07:01:30.670Z,96374.97
2023-12-23T07:03:56.898Z,96380.53
2023-12-23T07:06:23.154Z,96379.16
2023-12-23T07:08:49.418Z,96371.47
2023-12-23T07:11:16.878Z,96370.88
2023-12-23T07:13:43.186Z,96359.75
2023-12-23T07:16:09.447Z,96355.53
2023-12-23T07:18:35.771Z,96346.78
2023-12-23T07:21:02.237Z,96343.59
2023-12-23T07:23:28.478Z,96340.38
2023-12-23T07:25:54.750Z,96334.31
2023-12-23T07:28:21.158Z,96324.00
2023-12-23T07:30:47.418Z,96329.28
2023-12-23T07:33:13.822Z,96318.94
2023-12-23T07:35:40.225Z,96312.06
2023-12-23T07:38:06.495Z,96308.06
2023-12-23T07:40:36.188Z,96295.09
2023-12-23T07:43:02.601Z,96287.41
2023-12-23T07:45:28.837Z,96285.84
2023-12-23T07:47:55.112Z,96278.16
2023-12-23T07:50:21.431Z,96281.28
2023-12-23T07:52:47.967Z,96266.47
2023-12-23T07:55:14.384Z,96271.19
2023-12-23T07:57:40.694Z,96254.78
2023-12-23T08:00:06.954Z,96245.28
2023-12-23T08:02:33.250Z,96242.63
2023-12-23T08:04:59.611Z,96259.53
2023-12-23T08:07:25.917Z,96239.44
2023-12-23T08:09:52.148Z,96234.22
2023-12-23T08:12:18.422Z,96240.25
2023-12-23T08:14:44.765Z,96242.72
2023-12-23T08:17:11.073Z,96221.81
2023-12-23T08:19:37.380Z,96221.19
2023-12-23T08:22:03.660Z,96224.75
2023-12-23T08:24:29.928Z,96229.38
2023-12-23T08:26:56.191Z,96232.09
2023-12-23T08:29:22.458Z,96236.13
2023-12-23T08:31:48.762Z,96234.88
2023-12-23T08:34:15.073Z,96238.88
2023-12-23T08:36:41.351Z,96228.56
2023-12-23T08:39:07.583Z,96237.06
2023-12-23T08:41:33.791Z,96228.31
2023-12-23T08:44:00.106Z,96221.97
2023-12-23T08:46:26.412Z,96228.88
2023-12-23T08:48:52.813Z,96236.06
2023-12-23T08:51:19.312Z,96236.06
2023-12-23T08:53:45.670Z,96238.72
2023-12-23T08:56:11.995Z,96235.00
2023-12-23T08:58:38.867Z,96228.38
2023-12-23T09:01:05.194Z,96231.31
2023-12-23T09:03:31.554Z,96246.44
2023-12-23T09:05:57.936Z,96239.56
2023-12-23T09:08:24.451Z,96253.09
2023-12-23T09:10:50.875Z,96255.22
2023-12-23T09:13:17.198Z,96242.22
2023-12-23T09:15:43.452Z,96249.13
2023-12-23T09:18:09.951Z,96248.88
2023-12-23T09:20:36.269Z,96260.81
2023-12-23T09:23:03.812Z,96257.63
2023-12-23T09:25:30.148Z,96248.06
2023-12-23T09:27:56.400Z,96264.25
2023-12-23T09:30:23.784Z,96261.09
2023-12-23T09:32:50.135Z,96270.91
2023-12-23T09:35:16.552Z,96271.72
2023-12-23T09:37:42.878Z,96265.06
2023-12-23T09:40:09.167Z,96273.56
2023-12-23T09:42:35.447Z,96267.16
2023-12-23T09:45:01.785Z,96286.81
2023-12-23T09:47:28.266Z,96274.88
2023-12-23T09:49:54.836Z,96292.13
2023-12-23T09:52:21.155Z,96287.34
2023-12-23T09:54:47.421Z,96295.84
2023-12-23T09:57:13.705Z,96293.19
2023-12-23T09:59:39.967Z,96301.69
2023-12-23T10:02:06.427Z,96299.56
2023-12-23T10:04:32.738Z,96301.69
2023-12-23T10:06:59.089Z,96271.16
2023-12-23T10:09:25.325Z,96287.88
2023-12-23T10:11:51.602Z,96270.88
2023-12-23T10:14:17.861Z,96292.13
2023-12-23T10:16:46.213Z,96297.19
2023-12-23T10:19:14.090Z,96286.81
2023-12-23T10:21:40.387Z,96304.88
2023-12-23T10:24:06.694Z,96295.31
2023-12-23T10:26:32.938Z,96301.16
2023-12-23T10:28:59.218Z,96299.00
2023-12-23T10:31:25.466Z,96309.41
2023-12-23T10:33:51.759Z,96317.09
2023-12-23T10:36:18.117Z,96313.34
2023-12-23T10:38:44.367Z,96324.53
2023-12-23T10:41:10.801Z,96320.78
2023-12-23T10:43:37.079Z,96319.75
2023-12-23T10:46:03.349Z,96328.53
2023-12-23T10:48:32.686Z,96326.63
2023-12-23T10:51:01.289Z,96324.78
2023-12-23T10:53:28.022Z,96327.97
2023-12-23T10:55:54.469Z,96333.28
2023-12-23T10:58:20.768Z,96321.59
2023-12-23T11:00:47.054Z,96326.91
2023-12-23T11:03:13.427Z,96351.34
2023-12-23T11:05:39.738Z,96335.94
2023-12-23T11:08:10.543Z,96340.97
2023-12-23T11:10:43.198Z,96365.44
2023-12-23T11:13:10.242Z,96340.97
2023-12-23T11:15:36.639Z,96349.47
2023-12-23T11:18:04.913Z,96363.34
2023-12-23T11:20:32.657Z,96363.88
2023-12-23T11:22:58.975Z,96388.31
2023-12-23T11:25:25.369Z,96366.78
2023-12-23T11:27:51.623Z,96374.50
2023-12-23T11:30:22.839Z,96385.66
2023-12-23T11:32:49.428Z,96373.66
2023-12-23T11:35:15.846Z,96386.69
2023-12-23T11:37:42.126Z,96383.00
2023-12-23T11:40:08.364Z,96387.22
2023-12-23T11:42:34.645Z,96394.16
2023-12-23T11:45:00.904Z,96405.56
2023-12-23T11:47:27.255Z,96399.47
2023-12-23T11:49:55.693Z,96400.25
2023-12-23T11:52:21.995Z,96416.19
2023-12-23T11:54:48.273Z,96388.84
2023-12-23T11:57:16.170Z,96391.50
2023-12-23T11:59:42.467Z,96394.94
2023-12-23T12:02:08.725Z,96416.19
2023-12-23T12:04:35.007Z,96414.34
2023-12-23T12:07:01.305Z,96409.03
2023-12-23T12:09:27.626Z,96410.09
2023-12-23T12:11:57.019Z,96410.88
2023-12-23T12:14:23.319Z,96416.75
2023-12-23T12:16:49.658Z,96415.16
2023-12-23T12:19:16.002Z,96417.53
2023-12-23T12:21:42.351Z,96422.59
2023-12-23T12:24:08.610Z,96411.69
2023-12-23T12:26:34.924Z,96423.94
2023-12-23T12:29:01.213Z,96429.50
2023-12-23T12:31:27.515Z,96426.31
2023-12-23T12:33:53.850Z,96426.84
2023-12-23T12:36:20.148Z,96424.72
2023-12-23T12:38:46.422Z,96441.97
2023-12-23T12:41:12.771Z,96418.56
2023-12-23T12:43:39.088Z,96424.44
2023-12-23T12:46:05.327Z,96434.53
2023-12-23T12:48:31.759Z,96427.06
2023-12-23T12:50:58.079Z,96420.66
2023-12-23T12:53:24.727Z,96433.47
2023-12-23T12:55:51.042Z,96442.22
2023-12-23T12:58:17.301Z,96424.41
2023-12-23T13:00:43.560Z,96440.34
2023-12-23T13:03:09.899Z,96447.25
2023-12-23T13:05:36.335Z,96445.41
2023-12-23T13:08:02.753Z,96445.41
2023-12-23T13:10:29.013Z,96452.59
2023-12-23T13:12:55.301Z,96445.13
2023-12-23T13:15:21.565Z,96456.84
2023-12-23T13:17:47.943Z,96453.38
2023-12-23T13:20:14.319Z,96457.13
2023-12-23T13:22:40.701Z,96462.44
2023-12-23T13:25:06.913Z,96465.09
2023-12-23T13:27:33.278Z,96460.84
2023-12-23T13:29:59.545Z,96463.50
2023-12-23T13:32:25.986Z,96473.38
2023-12-23T13:34:52.388Z,96465.38
2023-12-23T13:37:18.662Z,96477.34
2023-12-23T13:39:44.972Z,96477.63
2023-12-23T13:42:11.206Z,96477.63
2023-12-23T13:44:37.471Z,96477.63
2023-12-23T13:47:03.801Z,96497.03
2023-12-23T13:49:30.249Z,96481.34
2023-12-23T13:51:56.559Z,96498.38
2023-12-23T13:54:25.606Z,96496.25
2023-12-23T13:56:51.887Z,96505.28
2023-12-23T13:59:19.284Z,96498.09
2023-12-23T14:01:45.603Z,96512.19
2023-12-23T14:04:11.919Z,96513.78
2023-12-23T14:06:38.293Z,96518.06
2023-12-23T14:09:04.666Z,96510.06
2023-12-23T14:11:31.002Z,96524.16
2023-12-23T14:13:57.329Z,96519.63
2023-12-23T14:16:23.602Z,96535.34
2023-12-23T14:18:49.866Z,96519.38
2023-12-23T14:21:16.166Z,96531.91
2023-12-23T14:23:42.460Z,96531.63
2023-12-23T14:26:08.881Z,96530.00
2023-12-23T14:28:35.201Z,96543.84
2023-12-23T14:31:01.511Z,96545.69
2023-12-23T14:33:27.819Z,96543.31
2023-12-23T14:35:54.356Z,96544.13
2023-12-23T14:38:21.210Z,96557.41
2023-12-23T14:40:47.551Z,96553.69
2023-12-23T14:43:13.849Z,96566.22
2023-12-23T14:45:40.113Z,96581.38
2023-12-23T14:48:06.412Z,96574.19
2023-12-23T14:50:32.763Z,96573.38
2023-12-23T14:52:59.104Z,96583.22
2023-12-23T14:55:25.422Z,96593.09
2023-12-23T14:57:51.664Z,96591.22
2023-12-23T15:00:17.917Z,96604.50
2023-12-23T15:02:44.157Z,96593.88
2023-12-23T15:05:10.531Z,96598.41
2023-12-23T15:07:36.866Z,96618.06
2023-12-23T15:10:03.122Z,96605.84
2023-12-23T15:12:29.343Z,96614.63
2023-12-23T15:14:55.652Z,96603.97
2023-12-23T15:17:21.947Z,96611.19
2023-12-23T15:19:48.251Z,96627.13
2023-12-23T15:22:14.538Z,96629.81
2023-12-23T15:24:40.824Z,96626.06
2023-12-23T15:27:07.087Z,96626.59
2023-12-23T15:29:34.454Z,96637.78
2023-12-23T15:32:00.759Z,96634.59
2023-12-23T15:34:27.127Z,96636.97
2023-12-23T15:36:56.726Z,96651.63
2023-12-23T15:39:23.599Z,96647.63
2023-12-23T15:41:49.860Z,96654.28
2023-12-23T15:44:16.179Z,96655.63
2023-12-23T15:46:42.419Z,96661.47
2023-12-23T15:49:08.714Z,96671.88
2023-12-23T15:51:35.035Z,96673.47
2023-12-23T15:54:01.435Z,96673.47
2023-12-23T15:56:27.887Z,96671.59
2023-12-23T15:58:54.167Z,96654.81
2023-12-23T16:01:20.434Z,96667.06
2023-12-23T16:03:46.721Z,96685.69
2023-12-23T16:06:13.064Z,96684.91
2023-12-23T16:08:39.412Z,96683.84
2023-12-23T16:11:05.795Z,96693.66
2023-12-23T16:13:32.087Z,96700.63
2023-12-23T16:15:58.498Z,96689.97
2023-12-23T16:18:24.991Z,96695.81
2023-12-23T16:20:51.240Z,96696.59
2023-12-23T16:23:17.528Z,96691.81
2023-12-23T16:25:43.820Z,96707.53
2023-12-23T16:28:10.096Z,96714.47
2023-12-23T16:30:36.418Z,96707.00
2023-12-23T16:33:02.799Z,96713.94
2023-12-23T16:35:29.253Z,96715.50
2023-12-23T16:37:55.576Z,96716.31
2023-12-23T16:40:22.077Z,96714.47
2023-12-23T16:42:48.351Z,96730.16
2023-12-23T16:45:14.604Z,96716.84
2023-12-23T16:47:40.990Z,96714.19
2023-12-23T16:50:07.487Z,96724.56
2023-12-23T16:52:33.733Z,96711.25
2023-12-23T16:55:00.014Z,96714.72
2023-12-23T16:57:26.259Z,96717.41
2023-12-23T16:59:52.528Z,96720.06
2023-12-23T17:02:19.493Z,96705.13
2023-12-23T17:04:46.492Z,96709.13
2023-12-23T17:07:12.762Z,96710.22
2023-12-23T17:09:38.991Z,96720.88
2023-12-23T17:12:05.344Z,96721.63
2023-12-23T17:14:31.737Z,96711.00
2023-12-23T17:16:58.015Z,96717.13
2023-12-23T17:19:24.364Z,96727.50
2023-12-23T17:21:50.677Z,96718.47
2023-12-23T17:24:16.962Z,96731.50
2023-12-23T17:26:43.267Z,96721.63
2023-12-23T17:29:09.622Z,96725.13
2023-12-23T17:31:35.886Z,96724.84
2023-12-23T17:34:02.212Z,96728.31
2023-12-23T17:36:28.539Z,96736.03
2023-12-23T17:38:54.826Z,96741.34
2023-12-23T17:41:21.752Z,96738.47
2023-12-23T17:43:48.142Z,96740.84
2023-12-23T17:46:14.485Z,96735.28
2023-12-23T17:48:40.742Z,96744.84
2023-12-23T17:51:07.150Z,96745.41
2023-12-23T17:53:33.407Z,96737.13
2023-12-23T17:55:59.746Z,96743.28
2023-12-23T17:58:26.066Z,96747.53
2023-12-23T18:00:52.460Z,96754.44
2023-12-23T18:03:19.042Z,96745.41
2023-12-23T18:05:45.685Z,96747.78
2023-12-23T18:08:12.182Z,96744.84
2023-12-23T18:10:41.514Z,96751.81
2023-12-23T18:13:07.743Z,96751.81
2023-12-23T18:15:34.025Z,96756.59
2023-12-23T18:18:00.288Z,96740.59
2023-12-23T18:20:26.641Z,96744.84
2023-12-23T18:22:53.427Z,96749.13
2023-12-23T18:25:19.942Z,96749.91
2023-12-23T18:27:46.193Z,96761.38
2023-12-23T18:30:12.502Z,96757.66
2023-12-23T18:32:38.967Z,96769.09
2023-12-23T18:35:05.424Z,96744.84
2023-12-23T18:37:31.782Z,96757.13
2023-12-23T18:39:58.061Z,96769.63
2023-12-23T18:42:24.315Z,96770.16
2023-12-23T18:44:50.559Z,96766.44
2023-12-23T18:47:16.885Z,96770.97
2023-12-23T18:49:43.167Z,96779.50
2023-12-23T18:52:09.420Z,96777.63
2023-12-23T18:54:35.777Z,96779.50
2023-12-23T18:57:02.070Z,96763.25
2023-12-23T18:59:28.391Z,96780.00
2023-12-23T19:01:54.807Z,96778.16
2023-12-23T19:04:21.140Z,96778.97
2023-12-23T19:06:47.461Z,96782.16
2023-12-23T19:09:13.694Z,96795.22
2023-12-23T19:11:39.928Z,96780.81
2023-12-23T19:14:06.228Z,96786.69
2023-12-23T19:16:32.507Z,96785.59
2023-12-23T19:18:58.839Z,96788.53
2023-12-23T19:21:25.171Z,96782.97
2023-12-23T19:23:51.544Z,96789.88
2023-12-23T19:26:20.529Z,96797.59
2023-12-23T19:28:47.324Z,96790.16
2023-12-23T19:31:13.587Z,96774.16
2023-12-23T19:33:39.935Z,96790.69
2023-12-23T19:36:06.234Z,96795.47
2023-12-23T19:38:32.530Z,96793.63
2023-12-23T19:40:58.795Z,96785.63
2023-12-23T19:43:25.154Z,96776.53
2023-12-23T19:45:51.398Z,96781.09
2023-12-23T19:48:17.762Z,96786.16
2023-12-23T19:50:44.077Z,96777.88
2023-12-23T19:53:10.417Z,96793.88
2023-12-23T19:55:36.679Z,96799.75
2023-12-23T19:58:02.944Z,96788.00
2023-12-23T20:00:29.334Z,96800.28
2023-12-23T20:02:55.583Z,96800.78
2023-12-23T20:05:21.903Z,96803.44
2023-12-23T20:07:48.208Z,96806.66
2023-12-23T20:10:14.489Z,96790.38
2023-12-23T20:12:40.739Z,96796.53
2023-12-23T20:15:07.018Z,96800.53
2023-12-23T20:17:33.582Z,96794.13
2023-12-23T20:19:59.973Z,96792.00
2023-12-23T20:22:26.281Z,96797.84
2023-12-23T20:24:52.552Z,96800.53
2023-12-23T20:27:18.840Z,96787.72
2023-12-23T20:29:45.145Z,96786.38
2023-12-23T20:32:14.577Z,96791.72
2023-12-23T20:34:40.881Z,96787.19
2023-12-23T20:37:07.131Z,96778.09
2023-12-23T20:39:33.438Z,96798.66
2023-12-23T20:41:59.788Z,96801.31
2023-12-23T20:44:26.197Z,96805.03
2023-12-23T20:46:52.644Z,96799.72
2023-12-23T20:49:19.207Z,96793.31
2023-12-23T20:51:45.548Z,96801.31
2023-12-23T20:54:11.849Z,96797.03
2023-12-23T20:56:38.229Z,96800.78
2023-12-23T20:59:05.027Z,96790.13
2023-12-23T21:01:31.696Z,96790.13
2023-12-23T21:03:58.072Z,96792.78
2023-12-23T21:06:24.409Z,96789.31
2023-12-23T21:08:50.723Z,96793.06
2023-12-23T21:11:18.371Z,96793.84
2023-12-23T21:13:44.781Z,96801.84
2023-12-23T21:16:11.207Z,96801.31
2023-12-23T21:18:37.522Z,96803.97
2023-12-23T21:21:03.839Z,96800.25
2023-12-23T21:23:30.136Z,96801.84
2023-12-23T21:25:56.445Z,96801.56
2023-12-23T21:28:22.705Z,96787.19
2023-12-23T21:30:49.235Z,96803.72
2023-12-23T21:33:15.613Z,96799.69
2023-12-23T21:35:41.998Z,96799.19
2023-12-23T21:38:08.365Z,96799.69
2023-12-23T21:40:34.746Z,96800.22
2023-12-23T21:43:00.974Z,96807.19
2023-12-23T21:45:27.204Z,96819.44
2023-12-23T21:47:56.111Z,96820.25
2023-12-23T21:50:23.327Z,96809.31
2023-12-23T21:52:49.898Z,96818.41
2023-12-23T21:55:16.288Z,96819.44
2023-12-23T21:57:42.602Z,96821.06
2023-12-23T22:00:08.878Z,96820.25
2023-12-23T22:02:36.835Z,96814.13
2023-12-23T22:05:04.325Z,96798.38
2023-12-23T22:07:30.624Z,96800.22
2023-12-23T22:09:56.921Z,96790.63
2023-12-23T22:12:23.208Z,96791.69
2023-12-23T22:14:49.545Z,96790.09
2023-12-23T22:17:15.808Z,96795.44
2023-12-23T22:19:42.134Z,96791.41
2023-12-23T22:22:08.416Z,96795.16
2023-12-23T22:24:34.624Z,96796.25
2023-12-23T22:27:00.862Z,96788.50
2023-12-23T22:29:27.181Z,96799.16
2023-12-23T22:31:53.498Z,96796.75
2023-12-23T22:34:19.797Z,96791.72
2023-12-23T22:36:46.081Z,96794.66
2023-12-23T22:39:12.331Z,96788.50
2023-12-23T22:41:38.677Z,96794.09
2023-12-23T22:44:04.991Z,96783.72
2023-12-23T22:46:31.230Z,96787.47
2023-12-23T22:48:57.512Z,96785.03
2023-12-23T22:51:23.778Z,96793.84
2023-12-23T22:53:50.018Z,96787.97
2023-12-23T22:56:16.333Z,96786.41
2023-12-23T22:58:42.608Z,96787.44
2023-12-23T23:01:08.906Z,96792.00
2023-12-23T23:03:38.248Z,96788.53
2023-12-23T23:06:04.634Z,96790.66
2023-12-23T23:08:31.013Z,96791.75
2023-12-23T23:10:57.306Z,96798.13
2023-12-23T23:13:23.585Z,96802.66
2023-12-23T23:15:49.811Z,96786.94
2023-12-23T23:18:16.272Z,96793.34
2023-12-23T23:20:42.645Z,96801.34
2023-12-23T23:23:08.951Z,96796.28
2023-12-23T23:25:35.236Z,96790.13
2023-12-23T23:28:01.586Z,96788.53
2023-12-23T23:30:27.866Z,96781.34
2023-12-23T23:32:54.305Z,96780.81
2023-12-23T23:35:20.769Z,96779.22
2023-12-23T23:37:47.023Z,96775.75
2023-12-23T23:40:13.414Z,96766.16
2023-12-23T23:42:39.741Z,96764.56
2023-12-23T23:45:06.034Z,96764.03
2023-12-23T23:47:32.429Z,96756.03
2023-12-23T23:49:58.889Z,96754.41
2023-12-23T23:52:25.343Z,96759.25
2023-12-23T23:54:51.626Z,96768.28
2023-12-23T23:57:18.059Z,96773.09
2023-12-23T23:59:44.387Z,96773.66
